Flood From: 22-02-2018 06:00 Until: 23-02-2018 06:00 warning for: Flood Level: Yellow info button

Although rather usual in this region, locally or potentially dangerous phenomena are expected. (such as local winds, summer thunderstorms, rising streams or high waves) Be aware and pay attention to the latest weather updates, especially if you carry out activities exposed to weather or close to a stream or shoreline. 


Meteo18 Weather Cam more information Meteo18 Weather Cam


Thunder radar more information blitzortung!


Rain radar more information rain snow radar


Visit our other weather sites:

Template documentation
and downloads

And another site



Weather Underground History page Text

Daily Summary for November 13, 2017 Units:  English    Metric   Both
« Previous Day
Next Day »
Daily Weekly Monthly Yearly Custom
  High: Low: Average:
Temperature: TemperatureC °F 4.2 °F 5.6 °F
Dew Point: DewpointC °F 2.1 °F 3.2 °F
Humidity: Humidity % 78 % 84 %
Wind Speed: WindSpeedKMH mph 0.0 mph 11.8 mph
Wind Gust: WindSpeedGustKMH mph - -
Wind:- - West
Pressure: PressurehPa in 1016.5 in -
Precipitation: 0.0 in    
Historical Graphs
 
 
Tabular Data for November 13, 2017
Time Temperature Dew Point Pressure Wind Wind Speed Wind Gust Humidity Rainfall Rate (Hourly)
TemperatureC °F DewpointC °F PressurehPa in Calm     Humidity % HourlyPrecipMM in
00:02 4.9 °F 2.3 °F 1016.5 in WNW 19.3 mph 25.7 mph 83 % 0.0 in
00:07 4.9 °F 2.3 °F 1016.5 in NW 14.5 mph 27.4 mph 83 % 0.0 in
00:12 4.9 °F 2.3 °F 1016.5 in NNE 8.0 mph 27.4 mph 83 % 0.0 in
00:17 4.9 °F 2.3 °F 1016.5 in NNW 8.0 mph 27.4 mph 83 % 0.0 in
00:22 4.9 °F 2.3 °F 1016.5 in WNW 12.9 mph 27.4 mph 83 % 0.0 in
00:32 4.8 °F 2.2 °F 1016.8 in NW 8.0 mph 29.0 mph 83 % 0.0 in
00:42 4.8 °F 2.2 °F 1016.8 in NW 6.4 mph 25.7 mph 83 % 0.0 in
00:47 4.7 °F 2.1 °F 1016.8 in West 12.9 mph 25.7 mph 83 % 0.0 in
00:52 4.7 °F 2.2 °F 1016.8 in NNW 12.9 mph 25.7 mph 84 % 0.0 in
00:57 4.7 °F 2.1 °F 1016.8 in NW 11.3 mph 27.4 mph 83 % 0.0 in
01:02 4.7 °F 2.1 °F 1016.8 in NW 12.9 mph 27.4 mph 83 % 0.0 in
01:07 4.8 °F 2.2 °F 1016.8 in WNW 9.7 mph 29.0 mph 83 % 0.0 in
01:12 4.7 °F 2.1 °F 1017.2 in NNE 14.5 mph 29.0 mph 83 % 0.0 in
01:17 4.7 °F 2.1 °F 1017.2 in NW 12.9 mph 29.0 mph 83 % 0.0 in
01:22 4.7 °F 2.1 °F 1017.2 in NW 14.5 mph 29.0 mph 83 % 0.0 in
01:32 4.7 °F 2.2 °F 1017.2 in NW 19.3 mph 29.0 mph 84 % 0.0 in
01:37 4.7 °F 2.2 °F 1017.2 in WNW 27.4 mph 29.0 mph 84 % 0.0 in
01:42 4.7 °F 2.2 °F 1017.5 in NNW 8.0 mph 27.4 mph 84 % 0.0 in
01:47 4.7 °F 2.2 °F 1017.5 in NNW 11.3 mph 27.4 mph 84 % 0.0 in
01:52 4.6 °F 2.1 °F 1017.5 in NW 14.5 mph 29.0 mph 84 % 0.0 in
01:57 4.6 °F 2.3 °F 1017.5 in NW 14.5 mph 29.0 mph 85 % 0.0 in
02:02 4.5 °F 2.2 °F 1017.5 in NW 9.7 mph 29.0 mph 85 % 0.0 in
02:07 4.4 °F 2.1 °F 1017.5 in WNW 3.2 mph 29.0 mph 85 % 0.0 in
02:12 4.4 °F 2.3 °F 1017.5 in WNW 9.7 mph 29.0 mph 86 % 0.0 in
02:17 4.3 °F 2.2 °F 1017.5 in WNW 8.0 mph 29.0 mph 86 % 0.0 in
02:22 4.3 °F 2.2 °F 1017.5 in NW 19.3 mph 25.7 mph 86 % 0.0 in
02:27 4.3 °F 2.2 °F 1017.8 in NW 14.5 mph 24.1 mph 86 % 0.0 in
02:32 4.3 °F 2.2 °F 1017.8 in WNW 24.1 mph 27.4 mph 86 % 0.0 in
02:37 4.3 °F 2.2 °F 1017.8 in NNW 12.9 mph 27.4 mph 86 % 0.0 in
02:42 4.3 °F 2.2 °F 1017.8 in WNW 4.8 mph 27.4 mph 86 % 0.0 in
02:47 4.2 °F 2.2 °F 1017.8 in WNW 17.7 mph 27.4 mph 87 % 0.0 in
02:52 4.3 °F 2.3 °F 1017.8 in NW 14.5 mph 27.4 mph 87 % 0.0 in
02:57 4.3 °F 2.3 °F 1017.8 in NW 19.3 mph 27.4 mph 87 % 0.0 in
03:02 4.3 °F 2.3 °F 1017.8 in NNW 19.3 mph 27.4 mph 87 % 0.0 in
03:12 4.4 °F 2.4 °F 1017.8 in NNW 12.9 mph 30.6 mph 87 % 0.0 in
03:17 4.4 °F 2.4 °F 1017.8 in NW 19.3 mph 30.6 mph 87 % 0.0 in
03:22 4.5 °F 2.5 °F 1017.8 in NW 6.4 mph 27.4 mph 87 % 0.0 in
03:27 4.6 °F 2.6 °F 1017.8 in North 12.9 mph 27.4 mph 87 % 0.0 in
03:32 4.6 °F 2.5 °F 1017.8 in WNW 20.9 mph 30.6 mph 86 % 0.0 in
03:37 4.7 °F 2.6 °F 1018.2 in NW 9.7 mph 30.6 mph 86 % 0.0 in
03:42 4.2 °F 2.1 °F 1018.2 in NW 9.7 mph 27.4 mph 86 % 0.0 in
08:42 5.1 °F 3.3 °F 1020.2 in NNW 20.9 mph -1607.4 mph 88 % 0 in
08:47 5.2 °F 3.4 °F 1020.5 in North 17.7 mph 32.2 mph 88 % 0.0 in
08:52 5.2 °F 3.4 °F 1020.5 in NNW 20.9 mph 32.2 mph 88 % 0.0 in
08:57 5.2 °F 3.2 °F 1020.5 in North 16.1 mph 32.2 mph 87 % 0.0 in
09:02 5.3 °F 3.3 °F 1020.9 in NNW 19.3 mph 32.2 mph 87 % 0.0 in
09:12 5.3 °F 3.3 °F 1020.9 in NNE 19.3 mph 37.0 mph 87 % 0.0 in
09:17 5.3 °F 3.3 °F 1020.9 in NW 17.7 mph 27.4 mph 87 % 0.0 in
09:27 5.3 °F 3.3 °F 1021.2 in NNW 11.3 mph 27.4 mph 87 % 0.0 in
09:32 5.3 °F 3.3 °F 1021.2 in NNW 20.9 mph 27.4 mph 87 % 0.0 in
09:37 5.4 °F 3.4 °F 1021.2 in NNE 17.7 mph 29.0 mph 87 % 0.0 in
09:42 5.4 °F 3.2 °F 1021.2 in NNW 11.3 mph 29.0 mph 86 % 0.0 in
09:47 5.4 °F 3.4 °F 1021.2 in NNW 19.3 mph 29.0 mph 87 % 0.0 in
09:52 5.4 °F 3.2 °F 1021.2 in NNE 16.1 mph 29.0 mph 86 % 0.0 in
09:57 5.5 °F 3.3 °F 1021.2 in NNW 20.9 mph 35.4 mph 86 % 0.0 in
10:02 5.5 °F 3.3 °F 1021.2 in North 14.5 mph 35.4 mph 86 % 0.0 in
10:07 5.6 °F 3.4 °F 1021.6 in North 24.1 mph 35.4 mph 86 % 0.0 in
10:12 5.7 °F 3.5 °F 1021.2 in NW 14.5 mph 35.4 mph 86 % 0.0 in
10:17 5.7 °F 3.4 °F 1021.6 in NNW 19.3 mph 35.4 mph 85 % 0.0 in
10:22 5.7 °F 3.4 °F 1021.6 in NNE 17.7 mph 35.4 mph 85 % 0.0 in
10:32 5.7 °F 3.4 °F 1021.6 in NW 30.6 mph 35.4 mph 85 % 0.0 in
10:42 5.8 °F 3.6 °F 1021.6 in North 16.1 mph 35.4 mph 86 % 0.0 in
10:47 5.9 °F 3.6 °F 1021.6 in NW 20.9 mph 33.8 mph 85 % 0.0 in
10:52 5.9 °F 3.4 °F 1021.6 in NW 24.1 mph 33.8 mph 84 % 0.0 in
10:57 5.9 °F 3.6 °F 1021.6 in NNW 12.9 mph 33.8 mph 85 % 0.0 in
11:02 6.0 °F 3.7 °F 1021.9 in NNW 17.7 mph 33.8 mph 85 % 0.0 in
11:12 6.1 °F 3.8 °F 1021.9 in NNE 12.9 mph 32.2 mph 85 % 0.0 in
11:17 6.2 °F 3.9 °F 1022.2 in NW 14.5 mph 27.4 mph 85 % 0.0 in
11:27 6.4 °F 3.7 °F 1021.9 in NNE 19.3 mph 29.0 mph 83 % 0.0 in
11:32 6.4 °F 3.7 °F 1021.9 in NNW 19.3 mph 29.0 mph 83 % 0.0 in
11:37 6.6 °F 3.9 °F 1021.9 in North 17.7 mph 35.4 mph 83 % 0.0 in
11:42 6.6 °F 3.9 °F 1021.9 in North 25.7 mph 35.4 mph 83 % 0.0 in
11:47 6.7 °F 4.0 °F 1021.9 in North 20.9 mph 35.4 mph 83 % 0.0 in
11:52 6.8 °F 4.1 °F 1021.9 in NNW 29.0 mph 35.4 mph 83 % 0.0 in
11:57 6.9 °F 4.0 °F 1021.6 in ENE 16.1 mph 32.2 mph 82 % 0.0 in
12:02 6.9 °F 4.0 °F 1021.9 in NNW 16.1 mph 32.2 mph 82 % 0.0 in
12:12 6.9 °F 4.0 °F 1021.9 in North 27.4 mph 32.2 mph 82 % 0.0 in
12:17 7.0 °F 4.3 °F 1021.9 in NNW 12.9 mph 33.8 mph 83 % 0.0 in
12:27 7.1 °F 4.1 °F 1021.9 in NNE 24.1 mph 35.4 mph 81 % 0.0 in
12:32 7.2 °F 4.3 °F 1022.2 in NW 12.9 mph 35.4 mph 82 % 0.0 in
12:42 7.2 °F 4.0 °F 1022.2 in North 16.1 mph 38.6 mph 80 % 0.0 in
12:52 7.2 °F 4.2 °F 1022.2 in NNW 16.1 mph 35.4 mph 81 % 0.0 in
12:57 7.1 °F 3.9 °F 1022.2 in NNW 20.9 mph 35.4 mph 80 % 0.0 in
13:07 7.1 °F 3.9 °F 1022.2 in NNW 14.5 mph 30.6 mph 80 % 0.0 in
13:12 7.1 °F 4.1 °F 1022.2 in NNW 12.9 mph 30.6 mph 81 % 0.0 in
13:17 7.1 °F 4.1 °F 1022.2 in NNE 11.3 mph 30.6 mph 81 % 0.0 in
13:22 7.1 °F 3.9 °F 1022.2 in NNW 19.3 mph 30.6 mph 80 % 0.0 in
13:32 7.3 °F 4.1 °F 1022.2 in NNW 12.9 mph 29.0 mph 80 % 0.0 in
13:37 7.4 °F 4.2 °F 1022.2 in NNE 14.5 mph 29.0 mph 80 % 0.0 in
13:42 7.5 °F 4.1 °F 1022.2 in NW 8.0 mph 29.0 mph 79 % 0.0 in
13:47 7.4 °F 4.0 °F 1022.2 in North 17.7 mph 27.4 mph 79 % 0.0 in
13:52 7.4 °F 4.0 °F 1022.2 in North 16.1 mph 27.4 mph 79 % 0.0 in
13:57 7.5 °F 4.1 °F 1022.2 in NW 9.7 mph 27.4 mph 79 % 0.0 in
14:02 7.7 °F 4.1 °F 1022.2 in NNW 12.9 mph 25.7 mph 78 % 0.0 in
14:12 7.7 °F 4.1 °F 1022.2 in North 11.3 mph 29.0 mph 78 % 0.0 in
14:17 7.8 °F 4.2 °F 1022.6 in North 19.3 mph 29.0 mph 78 % 0.0 in
14:22 7.8 °F 4.2 °F 1022.2 in North 16.1 mph 29.0 mph 78 % 0.0 in
14:27 7.7 °F 4.1 °F 1022.2 in NE 11.3 mph 27.4 mph 78 % 0.0 in
14:32 7.7 °F 4.1 °F 1022.2 in NNW 24.1 mph 27.4 mph 78 % 0.0 in
14:37 7.8 °F 4.2 °F 1022.6 in NNW 16.1 mph 27.4 mph 78 % 0.0 in
14:42 7.7 °F 4.1 °F 1022.6 in North 16.1 mph 25.7 mph 78 % 0.0 in
14:52 7.5 °F 4.1 °F 1022.6 in NNW 11.3 mph 25.7 mph 79 % 0.0 in
14:57 7.4 °F 4.2 °F 1022.9 in NW 17.7 mph 27.4 mph 80 % 0.0 in
15:02 7.2 °F 4.2 °F 1022.6 in WNW 17.7 mph 27.4 mph 81 % 0.0 in
15:07 7.2 °F 4.0 °F 1022.6 in NNW 6.4 mph 27.4 mph 80 % 0.0 in
15:12 7.2 °F 4.0 °F 1022.6 in NW 11.3 mph 27.4 mph 80 % 0.0 in
15:17 6.9 °F 3.9 °F 1022.9 in NNW 9.7 mph 27.4 mph 81 % 0.0 in
15:22 6.8 °F 3.9 °F 1022.9 in WNW 9.7 mph 24.1 mph 82 % 0.0 in
15:32 6.4 °F 3.7 °F 1022.9 in NW 6.4 mph 17.7 mph 83 % 0.0 in
15:37 6.3 °F 3.6 °F 1023.2 in NW 3.2 mph 19.3 mph 83 % 0.0 in
15:42 6.3 °F 3.6 °F 1023.2 in North 6.4 mph 19.3 mph 83 % 0.0 in
15:52 6.6 °F 3.9 °F 1023.2 in ENE 6.4 mph 14.5 mph 83 % 0.0 in
15:57 6.7 °F 4.0 °F 1023.2 in NNW 6.4 mph 14.5 mph 83 % 0.0 in
16:02 6.9 °F 4.2 °F 1023.2 in NNW 4.8 mph 14.5 mph 83 % 0.0 in
16:12 6.9 °F 4.0 °F 1023.2 in NNE 9.7 mph 17.7 mph 82 % 0.0 in
16:17 7.0 °F 4.1 °F 1023.2 in North 9.7 mph 16.1 mph 82 % 0.0 in
16:22 7.0 °F 4.1 °F 1023.2 in NNE 16.1 mph 19.3 mph 82 % 0.0 in
16:27 7.0 °F 4.1 °F 1023.2 in North 8.0 mph 19.3 mph 82 % 0.0 in
16:32 6.9 °F 4.0 °F 1023.2 in NW 11.3 mph 19.3 mph 82 % 0.0 in
16:42 6.8 °F 3.9 °F 1023.2 in NNW 9.7 mph 19.3 mph 82 % 0.0 in
16:47 6.8 °F 3.6 °F 1023.2 in NNW 11.3 mph 19.3 mph 80 % 0.0 in
16:52 6.8 °F 3.6 °F 1023.6 in North 3.2 mph 22.5 mph 80 % 0.0 in
16:57 6.7 °F 3.5 °F 1023.6 in NW 4.8 mph 22.5 mph 80 % 0.0 in
17:02 6.6 °F 3.6 °F 1023.6 in NNW 16.1 mph 16.1 mph 81 % 0.0 in
17:12 6.3 °F 3.5 °F 1023.6 in WNW 6.4 mph 22.5 mph 82 % 0.0 in
17:17 6.2 °F 3.5 °F 1023.6 in NW 4.8 mph 22.5 mph 83 % 0.0 in
17:22 6.1 °F 3.4 °F 1023.2 in WNW 1.6 mph 22.5 mph 83 % 0.0 in
17:27 6.1 °F 3.4 °F 1023.6 in West 12.9 mph 16.1 mph 83 % 0.0 in
17:32 5.9 °F 3.2 °F 1023.6 in NNW 4.8 mph 16.1 mph 83 % 0.0 in
17:42 5.7 °F 3.2 °F 1023.9 in NNW 3.2 mph 14.5 mph 84 % 0.0 in
17:47 5.6 °F 3.3 °F 1023.9 in NNW 8.0 mph 12.9 mph 85 % 0.0 in
17:52 5.6 °F 3.3 °F 1023.9 in NNW 4.8 mph 16.1 mph 85 % 0.0 in
17:57 5.5 °F 3.2 °F 1024.3 in WNW 1.6 mph 16.1 mph 85 % 0.0 in
18:02 5.4 °F 3.1 °F 1024.3 in NNW 4.8 mph 16.1 mph 85 % 0.0 in
18:12 5.4 °F 3.1 °F 1024.3 in NNW 1.6 mph 16.1 mph 85 % 0.0 in
18:17 5.6 °F 3.1 °F 1024.3 in NNW 8.0 mph 14.5 mph 84 % 0.0 in
18:22 5.7 °F 3.2 °F 1024.3 in NNW 9.7 mph 14.5 mph 84 % 0.0 in
18:32 5.7 °F 3.0 °F 1024.3 in NNW 11.3 mph 16.1 mph 83 % 0.0 in
18:42 5.5 °F 3.0 °F 1024.6 in NNW 3.2 mph 14.5 mph 84 % 0.0 in
18:47 5.4 °F 2.9 °F 1024.6 in NNE 4.8 mph 12.9 mph 84 % 0.0 in
18:52 5.3 °F 3.0 °F 1024.6 in NNW 3.2 mph 12.9 mph 85 % 0.0 in
18:57 5.2 °F 2.9 °F 1024.6 in NNW 1.6 mph 11.3 mph 85 % 0.0 in
19:02 5.1 °F 3.0 °F 1024.6 in NNE 3.2 mph 9.7 mph 86 % 0.0 in
19:12 4.9 °F 2.9 °F 1024.9 in Calm   8.0 mph 87 % 0.0 in
19:17 5.0 °F 3.0 °F 1024.9 in North 3.2 mph 8.0 mph 87 % 0.0 in
19:22 5.1 °F 3.1 °F 1024.9 in NNW 4.8 mph 9.7 mph 87 % 0.0 in
19:27 4.9 °F 2.9 °F 1024.9 in WNW 4.8 mph 9.7 mph 87 % 0.0 in
19:32 4.9 °F 3.1 °F 1024.9 in NW 4.8 mph 9.7 mph 88 % 0.0 in
19:37 5.1 °F 3.3 °F 1024.9 in North 4.8 mph 12.9 mph 88 % 0.0 in
19:42 5.1 °F 3.1 °F 1024.9 in NNW 6.4 mph 12.9 mph 87 % 0.0 in
19:47 5.1 °F 3.1 °F 1024.9 in NNE 6.4 mph 12.9 mph 87 % 0.0 in
19:52 5.1 °F 3.1 °F 1024.9 in NNW 6.4 mph 12.9 mph 87 % 0.0 in
19:57 5.1 °F 3.1 °F 1024.9 in NNW 8.0 mph 17.7 mph 87 % 0.0 in
20:02 5.2 °F 3.1 °F 1024.9 in North 14.5 mph 17.7 mph 86 % 0.0 in
20:12 5.3 °F 3.1 °F 1024.9 in North 8.0 mph 19.3 mph 86 % 0.0 in
20:17 5.4 °F 3.2 °F 1024.9 in North 12.9 mph 19.3 mph 86 % 0.0 in
20:22 5.4 °F 3.2 °F 1024.9 in North 6.4 mph 19.3 mph 86 % 0.0 in
20:27 5.4 °F 3.2 °F 1025.3 in NNE 6.4 mph 19.3 mph 86 % 0.0 in
20:32 5.5 °F 3.3 °F 1025.3 in North 9.7 mph 17.7 mph 86 % 0.0 in
20:42 5.6 °F 3.4 °F 1025.3 in Calm   14.5 mph 86 % 0.0 in
20:47 5.6 °F 3.4 °F 1025.3 in North 9.7 mph 12.9 mph 86 % 0.0 in
20:52 5.5 °F 3.3 °F 1025.3 in NW 6.4 mph 12.9 mph 86 % 0.0 in
20:57 5.3 °F 3.3 °F 1025.3 in NNW 3.2 mph 12.9 mph 87 % 0.0 in
21:02 5.2 °F 3.2 °F 1025.3 in North 8.0 mph 12.9 mph 87 % 0.0 in
21:07 5.1 °F 3.3 °F 1025.3 in NNW 8.0 mph 11.3 mph 88 % 0.0 in
21:12 4.9 °F 3.1 °F 1025.3 in NNW 8.0 mph 12.9 mph 88 % 0.0 in
21:22 4.8 °F 3.1 °F 1025.3 in North 4.8 mph 12.9 mph 89 % 0.0 in
21:27 4.7 °F 3.0 °F 1025.3 in NW 4.8 mph 14.5 mph 89 % 0.0 in
21:37 4.6 °F 2.9 °F 1025.3 in WNW 4.8 mph 14.5 mph 89 % 0.0 in
21:42 4.5 °F 3.0 °F 1025.3 in NNW 4.8 mph 12.9 mph 90 % 0.0 in
21:52 4.6 °F 3.3 °F 1025.3 in North 14.5 mph 14.5 mph 91 % 0.0 in
21:57 4.7 °F 3.2 °F 1025.3 in North 3.2 mph 17.7 mph 90 % 0.0 in
22:02 4.7 °F 3.2 °F 1025.3 in NNW 8.0 mph 17.7 mph 90 % 0.0 in
22:12 4.7 °F 3.2 °F 1025.6 in WNW 9.7 mph 12.9 mph 90 % 0.0 in
22:22 4.8 °F 3.3 °F 1025.3 in NW 8.0 mph 17.7 mph 90 % 0.0 in
22:32 4.9 °F 3.2 °F 1025.3 in NW 9.7 mph 20.9 mph 89 % 0.0 in
22:37 4.9 °F 3.2 °F 1025.6 in WNW 4.8 mph 20.9 mph 89 % 0.0 in
22:42 4.9 °F 3.2 °F 1025.6 in North 8.0 mph 20.9 mph 89 % 0.0 in
22:47 4.9 °F 3.2 °F 1025.6 in NNW 8.0 mph 20.9 mph 89 % 0.0 in
22:52 4.8 °F 3.1 °F 1025.6 in North 14.5 mph 22.5 mph 89 % 0.0 in
22:57 4.9 °F 3.2 °F 1025.6 in NNW 6.4 mph 22.5 mph 89 % 0.0 in
23:02 4.9 °F 3.2 °F 1025.6 in NNW 6.4 mph 20.9 mph 89 % 0.0 in
23:07 4.9 °F 3.1 °F 1025.6 in NW 4.8 mph 19.3 mph 88 % 0.0 in
23:12 4.9 °F 3.1 °F 1025.6 in NNW 8.0 mph 17.7 mph 88 % 0.0 in
23:17 4.8 °F 3.0 °F 1025.6 in North 4.8 mph 17.7 mph 88 % 0.0 in
23:27 4.4 °F 2.7 °F 1025.6 in NNE 8.0 mph 12.9 mph 89 % 0.0 in
23:32 4.3 °F 2.6 °F 1025.6 in NNE 6.4 mph 11.3 mph 89 % 0.0 in
23:42 4.3 °F 2.6 °F 1025.6 in WNW 6.4 mph 16.1 mph 89 % 0.0 in
23:47 4.3 °F 2.8 °F 1025.6 in North 14.5 mph 17.7 mph 90 % 0.0 in
23:57 4.3 °F 2.8 °F 1025.3 in North 16.1 mph 20.9 mph 90 % 0.0 in
Meteo18
Compliments of Weather Underground - 4 mb

Script developed by  Jim McMurry - jmcmurry@mwt.net Adapted for the template by  Wim van der Kuil - Leuven-Template.eu

You find our weather info also at:

European Weather Network

Weather Underground

Equipment we use:

Weather-station
Davis Vue

Weather-program
Meteobridge

Weather-server
Raspberry PI 2 B+

Provider
1 and 1

Davis Vue

Meteobridge

Raspberry PI 2 B+

1 and 1